Time;durP1;ratioP1;P1;durP2;ratioP2;P2;SDS_P1;SDS_P2;PMS_P1;PMS_P2;Temp;Humidity;BMP_temperature;BMP_pressure;BME280_temperature;BME280_humidity;BME280_pressure;Samples;Min_cycle;Max_cycle;Signal;HPM_P1;HPM_P2
2022/12/07 00:01:17;;;;;;;;;;;;;;;6.66;100.00;97845.22;5072749;28;19927;-58
2022/12/07 00:03:44;;;;;;;;;;;;;;;6.54;100.00;97845.28;5072689;28;19931;-60
2022/12/07 00:06:11;;;;;;;;;;;;;;;6.64;100.00;97837.50;5064294;28;19967;-59
2022/12/07 00:08:39;;;;;;;;;;;;;;;6.43;100.00;97838.19;5072407;28;19956;-58
2022/12/07 00:11:07;;;;;;;;;;;;;;;6.61;100.00;97837.19;5072200;28;19992;-58
2022/12/07 00:13:34;;;;;;;;;;;;;;;6.63;100.00;97832.44;5072131;28;19924;-59
2022/12/07 00:16:01;;;;;;;;;;;;;;;6.62;100.00;97829.00;5072155;28;19988;-59
2022/12/07 00:18:28;;;;;;;;;;;;;;;6.53;100.00;97825.91;5072122;28;19921;-58
2022/12/07 00:20:59;;;;;;;;;;;;;;;6.53;100.00;97825.91;5072087;28;19924;-59
2022/12/07 00:23:25;;;;;;;;;;;;;;;6.60;100.00;97827.59;5071991;28;19929;-60
2022/12/07 00:25:53;;;;;;;;;;;;;;;6.59;100.00;97824.16;5072188;28;19986;-58
2022/12/07 00:28:19;;;;;;;;;;;;;;;6.51;100.00;97819.22;5072279;28;19929;-59
2022/12/07 00:30:46;;;;;;;;;;;;;;;6.67;100.00;97822.97;5072183;28;20182;-59
2022/12/07 00:33:12;;;;;;;;;;;;;;;6.38;100.00;97828.28;5071652;28;19925;-58
2022/12/07 00:35:38;;;;;;;;;;;;;;;6.55;100.00;97827.53;5071948;28;19960;-59
2022/12/07 00:38:05;;;;;;;;;;;;;;;6.57;100.00;97830.72;5071865;28;20420;-59
2022/12/07 00:40:31;;;;;;;;;;;;;;;6.59;100.00;97831.31;5071747;28;19924;-59
2022/12/07 00:42:59;;;;;;;;;;;;;;;6.59;100.00;97828.66;5071896;28;19925;-58
2022/12/07 00:45:25;;;;;;;;;;;;;;;6.37;100.00;97813.44;5071944;28;20381;-59
2022/12/07 00:47:51;;;;;;;;;;;;;;;6.41;100.00;97833.13;5071697;28;19932;-58
2022/12/07 00:50:17;;;;;;;;;;;;;;;6.46;100.00;97827.94;5071767;28;19925;-59
2022/12/07 00:52:44;;;;;;;;;;;;;;;6.52;100.00;97820.84;5071703;28;19924;-58
2022/12/07 00:55:10;;;;;;;;;;;;;;;6.44;100.00;97823.88;5063175;28;19928;-59
2022/12/07 00:57:36;;;;;;;;;;;;;;;6.49;100.00;97819.50;5071515;28;19960;-60
2022/12/07 01:00:05;;;;;;;;;;;;;;;6.49;100.00;97821.34;5071351;28;19976;-59
2022/12/07 01:02:31;;;;;;;;;;;;;;;6.45;100.00;97825.50;5071525;28;19932;-59
2022/12/07 01:04:57;;;;;;;;;;;;;;;6.44;100.00;97821.22;5053663;28;19925;-59
2022/12/07 01:07:24;;;;;;;;;;;;;;;6.42;100.00;97829.44;5053448;28;19988;-59
2022/12/07 01:09:50;;;;;;;;;;;;;;;6.35;100.00;97826.13;5071520;28;20000;-58
2022/12/07 01:12:16;;;;;;;;;;;;;;;6.36;100.00;97824.28;5071238;28;19956;-58
2022/12/07 01:14:43;;;;;;;;;;;;;;;6.41;100.00;97827.81;5071250;28;19928;-59
2022/12/07 01:17:10;;;;;;;;;;;;;;;6.46;100.00;97830.56;5071202;28;19991;-58
2022/12/07 01:19:37;;;;;;;;;;;;;;;6.36;100.00;97835.69;5071065;28;19924;-59
2022/12/07 01:22:03;;;;;;;;;;;;;;;6.30;100.00;97831.34;5070790;28;19936;-61
2022/12/07 01:24:29;;;;;;;;;;;;;;;6.42;100.00;97840.03;5070981;28;19977;-58
2022/12/07 01:26:56;;;;;;;;;;;;;;;6.45;100.00;97836.91;5070746;28;19980;-59
2022/12/07 01:29:22;;;;;;;;;;;;;;;6.48;100.00;97830.31;5070826;28;19968;-58
2022/12/07 01:31:49;;;;;;;;;;;;;;;6.22;100.00;97830.91;5070808;28;20005;-59
2022/12/07 01:34:17;;;;;;;;;;;;;;;6.35;100.00;97833.25;5070643;28;19967;-58
2022/12/07 01:36:43;;;;;;;;;;;;;;;6.41;100.00;97827.81;5070782;28;19925;-58
2022/12/07 01:39:10;;;;;;;;;;;;;;;6.39;100.00;97819.31;5070721;28;19931;-60
2022/12/07 01:41:39;;;;;;;;;;;;;;;6.47;100.00;97813.59;5070841;28;19960;-59
2022/12/07 01:44:10;;;;;;;;;;;;;;;6.33;100.00;97822.91;5069750;28;19924;-59
2022/12/07 01:46:36;;;;;;;;;;;;;;;6.32;100.00;97815.16;5070816;28;20019;-60
2022/12/07 01:49:04;;;;;;;;;;;;;;;6.37;100.00;97821.41;5070477;28;19991;-58
2022/12/07 01:51:32;;;;;;;;;;;;;;;6.41;100.00;97822.50;5070457;28;19960;-59
2022/12/07 01:53:59;;;;;;;;;;;;;;;6.31;100.00;97817.00;5052615;28;19981;-59
2022/12/07 01:56:27;;;;;;;;;;;;;;;6.41;100.00;97811.09;5070222;28;19975;-59
2022/12/07 01:58:55;;;;;;;;;;;;;;;6.39;100.00;97819.31;5070203;28;20023;-59
2022/12/07 02:01:22;;;;;;;;;;;;;;;6.24;100.00;97819.03;5070117;28;19963;-59
2022/12/07 02:03:49;;;;;;;;;;;;;;;6.26;100.00;97822.25;5070101;28;19974;-58
2022/12/07 02:06:18;;;;;;;;;;;;;;;6.25;100.00;97820.63;5070021;28;19980;-58
2022/12/07 02:08:45;;;;;;;;;;;;;;;6.19;100.00;97818.91;5070330;28;19983;-58
2022/12/07 02:11:12;;;;;;;;;;;;;;;6.22;100.00;97821.09;5061937;28;19944;-59
2022/12/07 02:13:40;;;;;;;;;;;;;;;6.15;100.00;97817.81;5070024;28;19924;-59
2022/12/07 02:16:13;;;;;;;;;;;;;;;6.12;100.00;97820.13;5069768;28;19927;-59
2022/12/07 02:18:45;;;;;;;;;;;;;;;6.14;100.00;97824.13;5069886;28;19996;-58
2022/12/07 02:21:13;;;;;;;;;;;;;;;6.04;100.00;97818.63;5061479;28;19928;-59
2022/12/07 02:23:42;;;;;;;;;;;;;;;6.09;100.00;97812.63;5069620;28;19967;-59
2022/12/07 02:26:20;;;;;;;;;;;;;;;6.21;100.00;97816.03;5069444;28;19988;-59
2022/12/07 02:28:56;;;;;;;;;;;;;;;6.29;100.00;97819.09;5069752;28;19959;-60
2022/12/07 02:31:24;;;;;;;;;;;;;;;6.12;100.00;97810.31;5069652;28;19939;-59
2022/12/07 02:33:53;;;;;;;;;;;;;;;6.07;100.00;97810.19;5069560;28;20060;-59
2022/12/07 02:36:23;;;;;;;;;;;;;;;6.06;100.00;97813.91;5069475;28;19921;-59
2022/12/07 02:38:55;;;;;;;;;;;;;;;6.20;100.00;97809.94;5069503;28;19952;-58
2022/12/07 02:41:24;;;;;;;;;;;;;;;6.11;100.00;97814.00;5069339;28;19928;-59
2022/12/07 02:43:54;;;;;;;;;;;;;;;6.15;100.00;97823.09;5069495;28;19925;-59
2022/12/07 02:46:22;;;;;;;;;;;;;;;6.24;100.00;97815.56;5069493;28;20367;-59
2022/12/07 02:48:48;;;;;;;;;;;;;;;6.20;100.00;97807.28;5069330;28;19925;-58
2022/12/07 02:51:15;;;;;;;;;;;;;;;6.15;100.00;97809.03;5069381;28;19920;-58
2022/12/07 02:53:42;;;;;;;;;;;;;;;6.05;100.00;97812.28;5069269;28;19960;-58
2022/12/07 02:56:14;;;;;;;;;;;;;;;5.88;100.00;97809.56;5069143;28;19970;-60
2022/12/07 02:58:47;;;;;;;;;;;;;;;5.94;100.00;97813.94;5069391;28;20055;-59
2022/12/07 03:01:21;;;;;;;;;;;;;;;5.86;100.00;97811.66;5061512;28;19956;-59
2022/12/07 03:03:52;;;;;;;;;;;;;;;5.97;100.00;97804.72;5069324;28;19952;-58
2022/12/07 03:06:23;;;;;;;;;;;;;;;5.99;100.00;97805.28;5069329;28;19959;-59
2022/12/07 03:08:55;;;;;;;;;;;;;;;5.96;100.00;97805.75;5069093;28;19963;-58
2022/12/07 03:11:25;;;;;;;;;;;;;;;5.81;100.00;97806.25;5069160;28;19971;-59
2022/12/07 03:13:55;;;;;;;;;;;;;;;6.00;100.00;97801.59;5069196;28;19929;-59
2022/12/07 03:16:26;;;;;;;;;;;;;;;5.89;100.00;97802.44;5069073;28;19929;-58
2022/12/07 03:18:54;;;;;;;;;;;;;;;5.95;100.00;97806.78;5068934;28;20111;-58
2022/12/07 03:21:23;;;;;;;;;;;;;;;6.07;100.00;97796.94;5069166;28;19949;-59
2022/12/07 03:23:52;;;;;;;;;;;;;;;6.09;100.00;97802.84;5068749;28;19927;-59
2022/12/07 03:26:20;;;;;;;;;;;;;;;6.02;100.00;97796.06;5068731;28;19924;-59
2022/12/07 03:28:49;;;;;;;;;;;;;;;5.95;100.00;97804.13;5069001;28;19964;-57
2022/12/07 03:31:18;;;;;;;;;;;;;;;5.60;100.00;97806.06;5068965;28;19924;-59
2022/12/07 03:33:49;;;;;;;;;;;;;;;5.90;100.00;97799.56;5069110;28;19987;-58
2022/12/07 03:36:19;;;;;;;;;;;;;;;5.88;100.00;97795.53;5061331;28;19980;-58
2022/12/07 03:38:47;;;;;;;;;;;;;;;5.94;100.00;97794.59;5068867;28;20023;-59
2022/12/07 03:41:18;;;;;;;;;;;;;;;6.01;100.00;97789.94;5068693;28;19988;-59
2022/12/07 03:43:44;;;;;;;;;;;;;;;6.08;100.00;97795.09;5068813;28;19963;-60
2022/12/07 03:46:15;;;;;;;;;;;;;;;6.16;100.00;97790.22;5060471;28;20072;-58
2022/12/07 03:48:43;;;;;;;;;;;;;;;6.02;100.00;97799.50;5068962;28;19955;-59
2022/12/07 03:51:14;;;;;;;;;;;;;;;5.98;100.00;97803.66;5068790;28;20044;-58
2022/12/07 03:53:41;;;;;;;;;;;;;;;6.03;100.00;97801.13;5068804;28;19979;-60
2022/12/07 03:56:09;;;;;;;;;;;;;;;6.04;100.00;97794.78;5068758;28;19925;-60
2022/12/07 03:58:35;;;;;;;;;;;;;;;6.13;100.00;97798.66;5068801;28;19925;-59
2022/12/07 04:01:02;;;;;;;;;;;;;;;6.09;100.00;97786.13;5068497;28;19960;-59
2022/12/07 04:03:28;;;;;;;;;;;;;;;5.94;100.00;97784.78;5068497;28;19963;-58
2022/12/07 04:05:55;;;;;;;;;;;;;;;6.11;100.00;97776.06;5068333;28;19996;-61
2022/12/07 04:08:22;;;;;;;;;;;;;;;5.80;100.00;97775.47;5071056;28;19925;-59
2022/12/07 04:10:49;;;;;;;;;;;;;;;5.80;100.00;97787.91;5072596;28;19999;-60
2022/12/07 04:13:15;;;;;;;;;;;;;;;5.92;100.00;97780.75;5072228;28;20015;-59
2022/12/07 04:15:41;;;;;;;;;;;;;;;5.95;100.00;97790.88;5072302;28;19963;-59
2022/12/07 04:18:08;;;;;;;;;;;;;;;6.05;100.00;97799.03;5072033;28;20015;-59
2022/12/07 04:20:34;;;;;;;;;;;;;;;6.05;100.00;97801.69;5054136;28;19993;-59
2022/12/07 04:23:00;;;;;;;;;;;;;;;5.98;100.00;97795.72;5071933;28;19983;-60
2022/12/07 04:25:28;;;;;;;;;;;;;;;6.02;100.00;97791.56;5072103;28;20019;-58
2022/12/07 04:27:54;;;;;;;;;;;;;;;6.09;100.00;97789.59;5071727;28;19925;-59
2022/12/07 04:30:21;;;;;;;;;;;;;;;6.13;100.00;97787.28;5071761;28;19932;-59
2022/12/07 04:32:47;;;;;;;;;;;;;;;6.18;100.00;97782.03;5071836;28;19925;-59
2022/12/07 04:35:13;;;;;;;;;;;;;;;6.14;100.00;97787.00;5071626;28;19983;-59
2022/12/07 04:37:40;;;;;;;;;;;;;;;6.12;100.00;97783.00;5071729;28;20399;-59
2022/12/07 04:40:08;;;;;;;;;;;;;;;6.22;100.00;97776.00;5071488;28;19928;-59
2022/12/07 04:42:36;;;;;;;;;;;;;;;6.08;100.00;97771.25;5071726;28;19925;-59
2022/12/07 04:45:02;;;;;;;;;;;;;;;6.09;100.00;97773.69;5071602;28;19989;-58
2022/12/07 04:47:28;;;;;;;;;;;;;;;5.94;100.00;97770.75;5071420;28;19936;-59
2022/12/07 04:49:55;;;;;;;;;;;;;;;6.02;100.00;97780.97;5071304;28;19921;-59
2022/12/07 04:52:21;;;;;;;;;;;;;;;6.08;100.00;97780.00;5071302;28;19992;-58
2022/12/07 04:54:47;;;;;;;;;;;;;;;6.04;100.00;97773.56;5071208;28;19972;-59
2022/12/07 04:57:14;;;;;;;;;;;;;;;6.08;100.00;97772.06;5071261;28;19975;-59
2022/12/07 04:59:41;;;;;;;;;;;;;;;6.16;100.00;97771.66;5071290;28;19921;-59
2022/12/07 05:02:08;;;;;;;;;;;;;;;6.18;100.00;97759.00;5071040;28;19940;-58
2022/12/07 05:04:34;;;;;;;;;;;;;;;6.15;100.00;97774.56;5071326;28;19928;-59
2022/12/07 05:07:00;;;;;;;;;;;;;;;6.02;100.00;97764.25;5071084;28;19984;-58
2022/12/07 05:09:27;;;;;;;;;;;;;;;6.02;100.00;97764.25;5071136;28;20441;-58
2022/12/07 05:11:53;;;;;;;;;;;;;;;6.03;100.00;97761.38;5071066;28;20096;-58
2022/12/07 05:14:20;;;;;;;;;;;;;;;6.06;100.00;97760.09;5070992;28;19992;-59
2022/12/07 05:16:49;;;;;;;;;;;;;;;6.03;100.00;97761.38;5071088;28;20036;-58
2022/12/07 05:19:15;;;;;;;;;;;;;;;6.08;100.00;97758.81;5070629;28;19925;-59
2022/12/07 05:21:42;;;;;;;;;;;;;;;6.11;100.00;97758.31;5070780;28;19959;-59
2022/12/07 05:24:10;;;;;;;;;;;;;;;6.16;100.00;97758.41;5064459;28;19921;-57
2022/12/07 05:26:37;;;;;;;;;;;;;;;6.07;100.00;97759.03;5070728;28;19988;-59
2022/12/07 05:29:04;;;;;;;;;;;;;;;5.92;100.00;97752.41;5070651;28;19992;-58
2022/12/07 05:31:30;;;;;;;;;;;;;;;5.86;100.00;97747.25;5070750;28;19959;-59
2022/12/07 05:33:58;;;;;;;;;;;;;;;5.87;100.00;97740.91;5070520;28;19924;-58
2022/12/07 05:36:24;;;;;;;;;;;;;;;5.91;100.00;97742.84;5070375;28;19976;-59
2022/12/07 05:38:51;;;;;;;;;;;;;;;6.07;100.00;97735.97;5070266;28;19987;-59
2022/12/07 05:44:02;;;;;;;;;;;;;;;6.12;100.00;97744.03;5070060;28;19974;-60
2022/12/07 05:46:28;;;;;;;;;;;;;;;6.11;100.00;97747.72;5070255;28;19929;-59
2022/12/07 05:48:55;;;;;;;;;;;;;;;6.10;100.00;97738.16;5070159;28;19932;-58
2022/12/07 05:51:23;;;;;;;;;;;;;;;6.38;100.00;97747.91;5070161;28;19925;-58
2022/12/07 05:53:49;;;;;;;;;;;;;;;6.39;100.00;97750.34;5052432;28;20026;-58
2022/12/07 05:56:15;;;;;;;;;;;;;;;6.45;100.00;97765.28;5070101;28;20020;-58
2022/12/07 06:01:26;;;;;;;;;;;;;;;6.27;100.00;97770.81;5063716;28;19925;-59
2022/12/07 06:03:52;;;;;;;;;;;;;;;6.26;100.00;97771.03;5069852;28;19936;-60
2022/12/07 06:06:19;;;;;;;;;;;;;;;6.12;100.00;97770.56;5069793;28;20373;-62
2022/12/07 06:08:47;;;;;;;;;;;;;;;6.04;100.00;97762.16;5069890;28;19956;-58
2022/12/07 06:13:57;;;;;;;;;;;;;;;6.27;100.00;97770.81;5069677;28;20332;-59
2022/12/07 06:16:23;;;;;;;;;;;;;;;6.30;100.00;97778.28;5069956;28;19994;-58
2022/12/07 06:18:50;;;;;;;;;;;;;;;6.28;100.00;97785.66;5069839;28;20023;-58
2022/12/07 06:21:16;;;;;;;;;;;;;;;6.22;100.00;97780.53;5069860;28;19928;-60
2022/12/07 06:23:42;;;;;;;;;;;;;;;6.14;100.00;97789.66;5063709;28;19925;-60
2022/12/07 06:26:10;;;;;;;;;;;;;;;6.25;100.00;97783.50;5069703;28;19988;-59
2022/12/07 06:28:36;;;;;;;;;;;;;;;6.23;100.00;97785.59;5069808;28;19956;-58
2022/12/07 06:31:03;;;;;;;;;;;;;;;6.24;100.00;97789.06;5069287;28;19929;-58
2022/12/07 06:33:30;;;;;;;;;;;;;;;6.31;100.00;97785.19;5069676;28;20003;-59
2022/12/07 06:35:56;;;;;;;;;;;;;;;6.22;100.00;97797.22;5069562;28;19939;-59
2022/12/07 06:38:22;;;;;;;;;;;;;;;6.19;100.00;97788.97;5069469;28;19952;-58
2022/12/07 06:40:49;;;;;;;;;;;;;;;6.21;100.00;97785.03;5069201;28;20020;-59
2022/12/07 06:43:16;;;;;;;;;;;;;;;6.23;100.00;97785.59;5069389;28;20500;-59
2022/12/07 06:45:43;;;;;;;;;;;;;;;6.25;100.00;97785.38;5069623;28;19932;-59
2022/12/07 06:48:09;;;;;;;;;;;;;;;6.16;100.00;97787.56;5069349;28;19931;-59
2022/12/07 06:50:36;;;;;;;;;;;;;;;6.08;100.00;97792.47;5069548;28;19924;-59
2022/12/07 06:53:02;;;;;;;;;;;;;;;6.04;100.00;97794.78;5069418;28;20023;-59
2022/12/07 06:55:29;;;;;;;;;;;;;;;6.17;100.00;97802.44;5069378;28;19980;-58
2022/12/07 06:57:55;;;;;;;;;;;;;;;6.22;100.00;97807.06;5069159;28;19935;-59
2022/12/07 07:00:23;;;;;;;;;;;;;;;6.16;100.00;97795.53;5069301;28;19925;-59
2022/12/07 07:02:49;;;;;;;;;;;;;;;6.24;100.00;97800.47;5051054;28;19925;-59
2022/12/07 07:05:16;;;;;;;;;;;;;;;6.11;100.00;97803.41;5068940;28;19925;-59
2022/12/07 07:07:42;;;;;;;;;;;;;;;6.11;100.00;97815.84;5068803;28;19925;-60
2022/12/07 07:10:09;;;;;;;;;;;;;;;6.13;100.00;97811.13;5068731;28;19976;-59
2022/12/07 07:12:35;;;;;;;;;;;;;;;6.19;100.00;97818.13;5051273;28;19999;-59
2022/12/07 07:15:02;;;;;;;;;;;;;;;6.24;100.00;97813.72;5068935;28;19984;-58
2022/12/07 07:17:29;;;;;;;;;;;;;;;6.24;100.00;97815.56;5068890;28;19984;-58
2022/12/07 07:19:56;;;;;;;;;;;;;;;6.17;100.00;97812.25;5069227;28;19929;-59
2022/12/07 07:22:22;;;;;;;;;;;;;;;6.03;100.00;97810.94;5066083;28;21111;-58
2022/12/07 07:24:48;;;;;;;;;;;;;;;6.15;100.00;97809.84;5066119;28;20396;-59
2022/12/07 07:27:15;;;;;;;;;;;;;;;6.06;100.00;97803.31;5068913;28;20011;-59
2022/12/07 07:29:41;;;;;;;;;;;;;;;6.08;100.00;97803.88;5069092;28;19925;-58
2022/12/07 07:32:08;;;;;;;;;;;;;;;6.08;100.00;97805.72;5051088;28;19951;-60
2022/12/07 07:34:35;;;;;;;;;;;;;;;6.08;100.00;97801.22;5068938;28;19936;-58
2022/12/07 07:37:02;;;;;;;;;;;;;;;6.09;100.00;97802.03;5068831;28;19988;-59
2022/12/07 07:39:28;;;;;;;;;;;;;;;6.21;100.00;97808.91;5068644;28;20007;-59
2022/12/07 07:41:54;;;;;;;;;;;;;;;6.15;100.00;97817.00;5068692;28;19928;-58
2022/12/07 07:44:21;;;;;;;;;;;;;;;5.20;100.00;97829.81;5072911;28;19992;-58
2022/12/07 07:46:48;;;;;;;;;;;;;;;5.17;100.00;97820.47;5073398;28;19980;-59
2022/12/07 07:49:14;;;;;;;;;;;;;;;5.35;100.00;97815.06;5073501;28;19943;-58
2022/12/07 07:51:42;;;;;;;;;;;;;;;5.59;100.00;97820.34;5072954;28;19925;-59
2022/12/07 07:54:08;;;;;;;;;;;;;;;5.73;100.00;97824.31;5072661;28;19947;-59
2022/12/07 07:56:34;;;;;;;;;;;;;;;5.86;100.00;97814.31;5073241;28;19988;-59
2022/12/07 07:59:01;;;;;;;;;;;;;;;5.82;100.00;97815.78;5072891;28;19925;-60
2022/12/07 08:01:27;;;;;;;;;;;;;;;5.93;100.00;97817.66;5071963;28;19960;-59
2022/12/07 08:03:53;;;;;;;;;;;;;;;6.08;100.00;97817.13;5072012;28;19956;-58
2022/12/07 08:06:20;;;;;;;;;;;;;;;5.83;100.00;97813.94;5072001;28;19929;-58
2022/12/07 08:08:47;;;;;;;;;;;;;;;5.85;100.00;97823.28;5072061;28;20020;-58
2022/12/07 08:11:14;;;;;;;;;;;;;;;6.07;100.00;97826.13;5064087;28;19947;-59
2022/12/07 08:13:40;;;;;;;;;;;;;;;6.13;100.00;97835.78;5072022;28;19964;-59
2022/12/07 08:16:08;;;;;;;;;;;;;;;5.98;100.00;97832.81;5071862;28;19936;-59
2022/12/07 08:18:35;;;;;;;;;;;;;;;5.84;100.00;97821.69;5072031;28;19960;-59
2022/12/07 08:21:02;;;;;;;;;;;;;;;6.13;100.00;97819.88;5054001;28;19967;-58
2022/12/07 08:23:28;;;;;;;;;;;;;;;6.20;100.00;97828.50;5065923;28;19925;-59
2022/12/07 08:26:00;;;;;;;;;;;;;;;6.12;100.00;97818.28;5071730;28;19932;-58
2022/12/07 08:28:26;;;;;;;;;;;;;;;6.05;100.00;97822.91;5071815;28;19929;-58
2022/12/07 08:30:53;;;;;;;;;;;;;;;6.10;100.00;97830.94;5053750;28;19935;-60
2022/12/07 08:33:22;;;;;;;;;;;;;;;5.78;100.00;97832.41;5071365;28;19967;-59
2022/12/07 08:35:48;;;;;;;;;;;;;;;5.76;100.00;97829.16;5071700;28;19964;-60
2022/12/07 08:38:14;;;;;;;;;;;;;;;5.77;100.00;97836.09;5071533;28;19951;-59
2022/12/07 08:40:41;;;;;;;;;;;;;;;5.80;100.00;97838.25;5071641;28;19984;-61
2022/12/07 08:43:09;;;;;;;;;;;;;;;5.92;100.00;97841.72;5071432;28;19944;-59
2022/12/07 08:45:35;;;;;;;;;;;;;;;5.76;100.00;97829.97;5071554;28;19964;-59
2022/12/07 08:48:04;;;;;;;;;;;;;;;6.08;100.00;97827.72;5071453;28;19924;-61
2022/12/07 08:50:32;;;;;;;;;;;;;;;6.08;100.00;97832.22;5071394;28;19980;-59
2022/12/07 08:53:00;;;;;;;;;;;;;;;6.15;100.00;97828.41;5070929;28;19925;-58
2022/12/07 08:55:28;;;;;;;;;;;;;;;5.92;100.00;97833.78;5071284;28;19935;-59
2022/12/07 08:57:54;;;;;;;;;;;;;;;5.88;100.00;97832.66;5071202;28;19935;-60
2022/12/07 09:00:22;;;;;;;;;;;;;;;6.06;100.00;97834.31;5070214;28;19924;-58
2022/12/07 09:02:48;;;;;;;;;;;;;;;5.93;100.00;97840.69;5071456;28;19936;-59
2022/12/07 09:05:15;;;;;;;;;;;;;;;5.93;100.00;97835.38;5071194;28;19936;-59
2022/12/07 09:07:42;;;;;;;;;;;;;;;6.06;100.00;97840.44;5071238;28;19925;-59
2022/12/07 09:10:09;;;;;;;;;;;;;;;6.17;100.00;97846.72;5071061;28;20012;-59
2022/12/07 09:12:35;;;;;;;;;;;;;;;6.06;100.00;97845.72;5071165;28;19925;-62
2022/12/07 09:15:02;;;;;;;;;;;;;;;6.00;100.00;97844.03;5071088;28;19988;-59
2022/12/07 09:17:32;;;;;;;;;;;;;;;6.04;100.00;97847.78;5053254;28;19956;-59
2022/12/07 09:19:58;;;;;;;;;;;;;;;6.10;100.00;97838.88;5053493;28;19992;-59
2022/12/07 09:22:25;;;;;;;;;;;;;;;6.09;100.00;97837.31;5068144;28;19935;-58
2022/12/07 09:24:51;;;;;;;;;;;;;;;6.02;100.00;97838.47;5067676;28;20015;-59
2022/12/07 09:27:18;;;;;;;;;;;;;;;5.92;100.00;97845.19;5052784;28;20003;-60
2022/12/07 09:29:44;;;;;;;;;;;;;;;6.07;100.00;97842.00;5070535;28;19951;-59
2022/12/07 09:32:11;;;;;;;;;;;;;;;6.10;100.00;97840.72;5070761;28;19928;-60
2022/12/07 09:34:38;;;;;;;;;;;;;;;6.13;100.00;97841.06;5070323;28;19925;-58
2022/12/07 09:37:06;;;;;;;;;;;;;;;6.00;100.00;97837.91;5070473;28;19959;-58
2022/12/07 09:39:32;;;;;;;;;;;;;;;5.94;100.00;97837.00;5070949;28;19924;-58
2022/12/07 09:42:00;;;;;;;;;;;;;;;5.80;100.00;97827.66;5070420;28;19989;-58
2022/12/07 09:44:27;;;;;;;;;;;;;;;5.89;100.00;97829.75;5070527;28;19932;-58
2022/12/07 09:46:54;;;;;;;;;;;;;;;6.01;100.00;97824.41;5070674;28;19981;-59
2022/12/07 09:49:21;;;;;;;;;;;;;;;5.81;100.00;97826.63;5070412;28;20064;-58
2022/12/07 09:51:49;;;;;;;;;;;;;;;5.84;100.00;97826.16;5070453;28;19996;-59
2022/12/07 09:54:16;;;;;;;;;;;;;;;5.93;100.00;97830.09;5070202;28;19921;-59
2022/12/07 09:56:42;;;;;;;;;;;;;;;5.90;100.00;97825.25;5070275;28;19963;-59
2022/12/07 09:59:13;;;;;;;;;;;;;;;5.72;100.00;97822.75;5070189;28;19944;-59
2022/12/07 10:01:39;;;;;;;;;;;;;;;5.85;100.00;97823.28;5070350;28;19971;-58
2022/12/07 10:04:10;;;;;;;;;;;;;;;5.96;100.00;97829.63;5070154;28;19974;-58
2022/12/07 10:06:36;;;;;;;;;;;;;;;6.05;100.00;97817.59;5069458;28;19925;-58
2022/12/07 10:09:09;;;;;;;;;;;;;;;6.07;100.00;97825.31;5070183;28;19991;-59
2022/12/07 10:11:35;;;;;;;;;;;;;;;6.14;100.00;97816.19;5069967;28;19921;-59
2022/12/07 10:14:11;;;;;;;;;;;;;;;6.09;100.00;97807.34;5069840;28;19928;-59
2022/12/07 10:16:39;;;;;;;;;;;;;;;6.10;100.00;97806.28;5069835;28;19960;-59
2022/12/07 10:19:24;;;;;;;;;;;;;;;6.04;100.00;97799.25;5069698;28;19936;-58
2022/12/07 10:22:00;;;;;;;;;;;;;;;5.84;100.00;97800.47;5069623;28;19968;-59
2022/12/07 10:24:28;;;;;;;;;;;;;;;5.82;100.00;97789.28;5063200;28;19979;-59
2022/12/07 10:26:54;;;;;;;;;;;;;;;6.01;100.00;97792.59;5069556;28;19920;-60
2022/12/07 10:29:22;;;;;;;;;;;;;;;6.04;100.00;97778.88;5069271;28;19925;-59
2022/12/07 10:31:53;;;;;;;;;;;;;;;6.07;100.00;97775.75;5069511;28;19983;-59
2022/12/07 10:34:23;;;;;;;;;;;;;;;5.91;100.00;97768.56;5069498;28;19967;-58
2022/12/07 10:36:50;;;;;;;;;;;;;;;6.04;100.00;97770.91;5069383;28;19925;-59
2022/12/07 10:39:18;;;;;;;;;;;;;;;6.07;100.00;97767.78;5069494;28;19988;-58
2022/12/07 10:41:55;;;;;;;;;;;;;;;5.95;100.00;97769.69;5069532;28;19940;-58
2022/12/07 10:44:23;;;;;;;;;;;;;;;5.89;100.00;97770.63;5061905;28;19928;-58
2022/12/07 10:46:54;;;;;;;;;;;;;;;6.03;100.00;97765.88;5068858;28;19928;-58
2022/12/07 10:49:36;;;;;;;;;;;;;;;6.14;100.00;97763.16;5069053;28;20012;-59
2022/12/07 10:52:08;;;;;;;;;;;;;;;6.17;100.00;97764.53;5068815;28;19971;-60
2022/12/07 10:54:39;;;;;;;;;;;;;;;6.12;100.00;97759.94;5069138;28;19988;-58
2022/12/07 10:57:18;;;;;;;;;;;;;;;6.22;100.00;97754.03;5068959;28;19984;-59
2022/12/07 10:59:56;;;;;;;;;;;;;;;5.99;100.00;97760.22;5069022;28;19947;-59
2022/12/07 11:02:41;;;;;;;;;;;;;;;5.91;100.00;97753.44;5062119;28;19948;-60
2022/12/07 11:05:15;;;;;;;;;;;;;;;5.97;100.00;97763.09;5068508;28;19971;-59
2022/12/07 11:07:46;;;;;;;;;;;;;;;5.93;100.00;97756.69;5068863;28;20109;-59
2022/12/07 11:10:16;;;;;;;;;;;;;;;6.01;100.00;97746.72;5060783;28;20015;-59
2022/12/07 11:12:59;;;;;;;;;;;;;;;6.13;100.00;97745.63;5068942;28;19984;-60
2022/12/07 11:15:30;;;;;;;;;;;;;;;6.02;100.00;97735.91;5062416;28;19936;-58
2022/12/07 11:18:01;;;;;;;;;;;;;;;6.03;100.00;97744.66;5068731;28;19956;-59
2022/12/07 11:20:36;;;;;;;;;;;;;;;6.08;100.00;97729.63;5068938;28;19968;-58
2022/12/07 11:23:05;;;;;;;;;;;;;;;6.03;100.00;97740.16;5062590;28;19925;-59
2022/12/07 11:25:33;;;;;;;;;;;;;;;5.85;100.00;97735.84;5068901;28;19925;-58
2022/12/07 11:28:10;;;;;;;;;;;;;;;5.88;100.00;97735.38;5068742;28;19921;-60
2022/12/07 11:30:41;;;;;;;;;;;;;;;5.87;100.00;97733.78;5068960;28;19988;-59
2022/12/07 11:33:14;;;;;;;;;;;;;;;5.68;100.00;97734.97;5068559;28;19964;-60
2022/12/07 11:35:48;;;;;;;;;;;;;;;5.93;100.00;97734.66;5068915;28;19960;-58
2022/12/07 11:38:16;;;;;;;;;;;;;;;5.74;100.00;97731.38;5060949;28;20185;-59
2022/12/07 11:40:45;;;;;;;;;;;;;;;5.83;100.00;97729.16;5068898;28;19959;-58
2022/12/07 11:43:20;;;;;;;;;;;;;;;5.86;100.00;97731.34;5068738;28;19963;-59
2022/12/07 11:45:48;;;;;;;;;;;;;;;5.91;100.00;97720.88;5068987;28;20294;-59
2022/12/07 11:48:21;;;;;;;;;;;;;;;5.95;100.00;97717.47;5061066;28;19967;-59
2022/12/07 11:50:48;;;;;;;;;;;;;;;6.00;100.00;97730.03;5068934;28;20031;-59
2022/12/07 11:53:17;;;;;;;;;;;;;;;6.03;100.00;97724.25;5068773;28;19987;-60
2022/12/07 11:55:46;;;;;;;;;;;;;;;6.03;100.00;97720.81;5068905;28;19925;-59
2022/12/07 11:58:22;;;;;;;;;;;;;;;5.90;100.00;97724.53;5060529;28;20016;-59
2022/12/07 12:00:49;;;;;;;;;;;;;;;5.99;100.00;97733.72;5068761;28;19929;-59
2022/12/07 12:03:20;;;;;;;;;;;;;;;5.83;100.00;97723.84;5068738;28;20010;-59
2022/12/07 12:05:47;;;;;;;;;;;;;;;5.93;100.00;97724.06;5068732;28;19946;-58
2022/12/07 12:08:16;;;;;;;;;;;;;;;6.02;100.00;97712.03;5060690;28;19925;-60
2022/12/07 12:11:00;;;;;;;;;;;;;;;5.61;100.00;97723.69;5068818;28;20583;-59
2022/12/07 12:13:46;;;;;;;;;;;;;;;5.86;100.00;97712.81;5062286;28;19944;-59
2022/12/07 12:16:23;;;;;;;;;;;;;;;5.83;100.00;97713.25;5060574;28;19924;-59
2022/12/07 12:18:55;;;;;;;;;;;;;;;5.95;100.00;97714.84;5068371;28;19927;-59
2022/12/07 12:21:27;;;;;;;;;;;;;;;5.93;100.00;97710.81;5068453;28;19964;-59
2022/12/07 12:23:57;;;;;;;;;;;;;;;5.93;100.00;97708.16;5062380;28;19979;-59
2022/12/07 12:26:25;;;;;;;;;;;;;;;5.57;100.00;97700.59;5069130;28;19939;-61
2022/12/07 12:28:54;;;;;;;;;;;;;;;5.57;100.00;97706.66;5070534;28;19984;-60
2022/12/07 12:31:32;;;;;;;;;;;;;;;5.66;100.00;97705.28;5072675;28;19924;-59
2022/12/07 12:34:01;;;;;;;;;;;;;;;5.58;100.00;97707.47;5072542;28;19959;-59
2022/12/07 12:36:43;;;;;;;;;;;;;;;5.58;100.00;97710.13;5072332;28;19987;-58
2022/12/07 12:39:13;;;;;;;;;;;;;;;5.48;100.00;97705.41;5054586;28;19956;-60
2022/12/07 12:42:07;;;;;;;;;;;;;;;5.85;100.00;97708.50;5072590;28;20024;-60
2022/12/07 12:44:57;;;;;;;;;;;;;;;6.00;100.00;97706.19;5067144;28;20007;-60
2022/12/07 12:47:52;;;;;;;;;;;;;;;6.11;100.00;97705.31;5064824;28;19984;-59
2022/12/07 12:50:20;;;;;;;;;;;;;;;6.06;100.00;97694.63;5065000;28;19997;-60
2022/12/07 12:52:51;;;;;;;;;;;;;;;5.90;100.00;97698.84;5072307;28;19925;-60
2022/12/07 12:55:51;;;;;;;;;;;;;;;5.94;100.00;97704.50;5064513;28;19964;-60
2022/12/07 12:58:37;;;;;;;;;;;;;;;6.07;100.00;97693.56;5064514;28;19925;-61
2022/12/07 13:01:24;;;;;;;;;;;;;;;5.97;100.00;97688.88;5071996;28;19984;-59
2022/12/07 13:03:55;;;;;;;;;;;;;;;6.05;100.00;97689.53;5046201;28;20000;-60